METAR Data
IDs: Format: Raw Decoded Include TAF

Data at: 0238 UTC 29 Nov 2020

METAR for:KADU (Audubon Cnty Arpt, IA, US)
Text:KADU 290235Z AUTO 21003KT 10SM CLR 05/01 A3000 RMK AO2
Temperature: 5.0°C ( 41°F)
Dewpoint: 1.0°C ( 34°F) [RH = 75%]
Pressure (altimeter):30.00 inches Hg (1016.0 mb)
Winds:from the SSW (210 degrees) at 3 MPH (3 knots; 1.5 m/s)
Visibility:10 or more sm (16+ km)
Ceiling:at least 12,000 feet AGL
Clouds:sky clear below 12,000 feet AGL
QC Flag:automated observation with no human augmentation